sensor_id;sensor_type;location;lat;lon;timestamp;temperature;humidity
27200;DHT22;14714;48.106;11.546;2023-03-12T00:00:47;0.00;99.90
27200;DHT22;14714;48.106;11.546;2023-03-12T00:03:14;-0.10;99.90
27200;DHT22;14714;48.106;11.546;2023-03-12T00:05:41;-0.10;99.90
27200;DHT22;14714;48.106;11.546;2023-03-12T00:08:08;-0.10;99.90
27200;DHT22;14714;48.106;11.546;2023-03-12T00:10:36;-0.10;99.90
27200;DHT22;14714;48.106;11.546;2023-03-12T00:13:03;-0.10;99.90
27200;DHT22;14714;48.106;11.546;2023-03-12T00:15:30;-0.10;99.90
27200;DHT22;14714;48.106;11.546;2023-03-12T00:17:57;-0.10;99.90
27200;DHT22;14714;48.106;11.546;2023-03-12T00:20:23;0.00;99.90
27200;DHT22;14714;48.106;11.546;2023-03-12T00:22:51;0.00;99.90
27200;DHT22;14714;48.106;11.546;2023-03-12T00:25:18;0.00;99.90
27200;DHT22;14714;48.106;11.546;2023-03-12T00:27:46;0.00;99.90
27200;DHT22;14714;48.106;11.546;2023-03-12T00:30:13;0.00;99.90
27200;DHT22;14714;48.106;11.546;2023-03-12T00:32:40;0.00;99.90
27200;DHT22;14714;48.106;11.546;2023-03-12T00:35:07;0.10;99.90
27200;DHT22;14714;48.106;11.546;2023-03-12T00:37:34;0.10;99.90
27200;DHT22;14714;48.106;11.546;2023-03-12T00:40:01;0.20;99.90
27200;DHT22;14714;48.106;11.546;2023-03-12T00:42:31;0.20;99.90
27200;DHT22;14714;48.106;11.546;2023-03-12T00:44:57;0.20;99.90
27200;DHT22;14714;48.106;11.546;2023-03-12T00:47:24;0.20;99.90
27200;DHT22;14714;48.106;11.546;2023-03-12T00:49:51;0.10;99.90
27200;DHT22;14714;48.106;11.546;2023-03-12T00:52:17;0.10;99.90
27200;DHT22;14714;48.106;11.546;2023-03-12T00:54:44;0.10;99.90
27200;DHT22;14714;48.106;11.546;2023-03-12T00:57:11;0.10;99.90
27200;DHT22;14714;48.106;11.546;2023-03-12T00:59:37;0.00;99.90
27200;DHT22;14714;48.106;11.546;2023-03-12T01:02:06;0.00;99.90
27200;DHT22;14714;48.106;11.546;2023-03-12T01:04:33;-0.10;99.90
27200;DHT22;14714;48.106;11.546;2023-03-12T01:06:59;-0.10;99.90
27200;DHT22;14714;48.106;11.546;2023-03-12T01:09:26;-0.10;99.90
27200;DHT22;14714;48.106;11.546;2023-03-12T01:11:53;-0.10;99.90
27200;DHT22;14714;48.106;11.546;2023-03-12T01:14:20;-0.10;99.90
27200;DHT22;14714;48.106;11.546;2023-03-12T01:16:46;-0.10;99.90
27200;DHT22;14714;48.106;11.546;2023-03-12T01:19:13;-0.10;99.90
27200;DHT22;14714;48.106;11.546;2023-03-12T01:21:40;-0.10;99.90
27200;DHT22;14714;48.106;11.546;2023-03-12T01:24:06;-0.20;99.90
27200;DHT22;14714;48.106;11.546;2023-03-12T01:26:33;-0.10;99.90
27200;DHT22;14714;48.106;11.546;2023-03-12T01:29:00;-0.10;99.90
27200;DHT22;14714;48.106;11.546;2023-03-12T01:31:26;-0.10;99.90
27200;DHT22;14714;48.106;11.546;2023-03-12T01:33:53;-0.10;99.90
27200;DHT22;14714;48.106;11.546;2023-03-12T01:36:22;0.00;99.90
27200;DHT22;14714;48.106;11.546;2023-03-12T01:38:49;0.10;99.90
27200;DHT22;14714;48.106;11.546;2023-03-12T01:41:16;0.10;99.90
27200;DHT22;14714;48.106;11.546;2023-03-12T01:43:44;0.20;99.90
27200;DHT22;14714;48.106;11.546;2023-03-12T01:46:21;0.20;99.90
27200;DHT22;14714;48.106;11.546;2023-03-12T01:49:06;0.30;99.90
27200;DHT22;14714;48.106;11.546;2023-03-12T01:51:39;0.40;99.90
27200;DHT22;14714;48.106;11.546;2023-03-12T01:54:08;0.50;99.90
27200;DHT22;14714;48.106;11.546;2023-03-12T01:56:36;0.50;99.90
27200;DHT22;14714;48.106;11.546;2023-03-12T01:59:08;0.60;99.90
27200;DHT22;14714;48.106;11.546;2023-03-12T02:01:36;0.70;99.90
27200;DHT22;14714;48.106;11.546;2023-03-12T02:04:03;0.80;99.90
27200;DHT22;14714;48.106;11.546;2023-03-12T02:06:36;0.80;99.90
27200;DHT22;14714;48.106;11.546;2023-03-12T02:09:05;0.90;99.90
27200;DHT22;14714;48.106;11.546;2023-03-12T02:11:32;0.90;99.90
27200;DHT22;14714;48.106;11.546;2023-03-12T02:13:59;0.90;99.90
27200;DHT22;14714;48.106;11.546;2023-03-12T02:16:26;0.90;99.90
27200;DHT22;14714;48.106;11.546;2023-03-12T02:18:53;1.00;99.90
27200;DHT22;14714;48.106;11.546;2023-03-12T02:21:25;0.90;99.90
27200;DHT22;14714;48.106;11.546;2023-03-12T02:26:31;0.90;99.90
27200;DHT22;14714;48.106;11.546;2023-03-12T02:28:59;0.90;99.90
27200;DHT22;14714;48.106;11.546;2023-03-12T02:31:27;0.80;99.90
27200;DHT22;14714;48.106;11.546;2023-03-12T02:33:55;0.80;99.90
27200;DHT22;14714;48.106;11.546;2023-03-12T02:36:21;0.70;99.90
27200;DHT22;14714;48.106;11.546;2023-03-12T02:38:49;0.60;99.90
27200;DHT22;14714;48.106;11.546;2023-03-12T02:41:28;0.60;99.90
27200;DHT22;14714;48.106;11.546;2023-03-12T02:46:52;0.40;99.90
27200;DHT22;14714;48.106;11.546;2023-03-12T02:49:20;0.40;99.90
27200;DHT22;14714;48.106;11.546;2023-03-12T02:51:47;0.40;99.90
27200;DHT22;14714;48.106;11.546;2023-03-12T02:54:15;0.40;99.90
27200;DHT22;14714;48.106;11.546;2023-03-12T02:56:42;0.40;99.90
27200;DHT22;14714;48.106;11.546;2023-03-12T02:59:09;0.40;99.90
27200;DHT22;14714;48.106;11.546;2023-03-12T03:01:35;0.40;99.90
27200;DHT22;14714;48.106;11.546;2023-03-12T03:04:03;0.40;99.90
27200;DHT22;14714;48.106;11.546;2023-03-12T03:06:30;0.40;99.90
27200;DHT22;14714;48.106;11.546;2023-03-12T03:08:58;0.40;99.90
27200;DHT22;14714;48.106;11.546;2023-03-12T03:11:25;0.50;99.90
27200;DHT22;14714;48.106;11.546;2023-03-12T03:13:52;0.50;99.90
27200;DHT22;14714;48.106;11.546;2023-03-12T03:16:20;0.50;99.90
27200;DHT22;14714;48.106;11.546;2023-03-12T03:18:46;0.50;99.90
27200;DHT22;14714;48.106;11.546;2023-03-12T03:21:13;0.50;99.90
27200;DHT22;14714;48.106;11.546;2023-03-12T03:23:42;0.50;99.90
27200;DHT22;14714;48.106;11.546;2023-03-12T03:26:09;0.50;99.90
27200;DHT22;14714;48.106;11.546;2023-03-12T03:28:36;0.50;99.90
27200;DHT22;14714;48.106;11.546;2023-03-12T03:31:02;0.60;99.90
27200;DHT22;14714;48.106;11.546;2023-03-12T03:33:30;0.60;99.90
27200;DHT22;14714;48.106;11.546;2023-03-12T03:35:58;0.60;99.90
27200;DHT22;14714;48.106;11.546;2023-03-12T03:38:28;0.60;99.90
27200;DHT22;14714;48.106;11.546;2023-03-12T03:40:55;0.70;99.90
27200;DHT22;14714;48.106;11.546;2023-03-12T03:43:21;0.70;99.90
27200;DHT22;14714;48.106;11.546;2023-03-12T03:45:49;0.70;99.90
27200;DHT22;14714;48.106;11.546;2023-03-12T03:48:21;0.70;99.90
27200;DHT22;14714;48.106;11.546;2023-03-12T03:50:48;0.70;99.90
27200;DHT22;14714;48.106;11.546;2023-03-12T03:53:14;0.80;99.90
27200;DHT22;14714;48.106;11.546;2023-03-12T03:55:41;0.80;99.90
27200;DHT22;14714;48.106;11.546;2023-03-12T03:58:08;0.80;99.90
27200;DHT22;14714;48.106;11.546;2023-03-12T04:00:34;0.80;99.90
27200;DHT22;14714;48.106;11.546;2023-03-12T04:03:01;0.90;99.90
27200;DHT22;14714;48.106;11.546;2023-03-12T04:05:28;0.90;99.90
27200;DHT22;14714;48.106;11.546;2023-03-12T04:07:55;0.90;99.90
27200;DHT22;14714;48.106;11.546;2023-03-12T04:10:22;0.90;99.90
27200;DHT22;14714;48.106;11.546;2023-03-12T04:12:49;0.90;99.90
27200;DHT22;14714;48.106;11.546;2023-03-12T04:15:16;1.00;99.90
27200;DHT22;14714;48.106;11.546;2023-03-12T04:17:43;1.00;99.90
27200;DHT22;14714;48.106;11.546;2023-03-12T04:20:10;1.00;99.90
27200;DHT22;14714;48.106;11.546;2023-03-12T04:22:36;1.10;99.90
27200;DHT22;14714;48.106;11.546;2023-03-12T04:25:03;1.10;99.90
27200;DHT22;14714;48.106;11.546;2023-03-12T04:27:30;1.10;99.90
27200;DHT22;14714;48.106;11.546;2023-03-12T04:29:57;1.10;99.90
27200;DHT22;14714;48.106;11.546;2023-03-12T04:32:23;1.10;99.90
27200;DHT22;14714;48.106;11.546;2023-03-12T04:34:50;1.20;99.90
27200;DHT22;14714;48.106;11.546;2023-03-12T04:37:17;1.20;99.90
27200;DHT22;14714;48.106;11.546;2023-03-12T04:39:43;1.20;99.90
27200;DHT22;14714;48.106;11.546;2023-03-12T04:42:10;1.30;99.90
27200;DHT22;14714;48.106;11.546;2023-03-12T04:44:37;1.30;99.90
27200;DHT22;14714;48.106;11.546;2023-03-12T04:47:04;1.30;99.90
27200;DHT22;14714;48.106;11.546;2023-03-12T04:49:30;1.30;99.90
27200;DHT22;14714;48.106;11.546;2023-03-12T04:51:57;1.30;99.90
27200;DHT22;14714;48.106;11.546;2023-03-12T04:54:24;1.40;99.90
27200;DHT22;14714;48.106;11.546;2023-03-12T04:56:50;1.40;99.90
27200;DHT22;14714;48.106;11.546;2023-03-12T04:59:17;1.50;99.90
27200;DHT22;14714;48.106;11.546;2023-03-12T05:01:44;1.50;99.90
27200;DHT22;14714;48.106;11.546;2023-03-12T05:04:10;1.50;99.90
27200;DHT22;14714;48.106;11.546;2023-03-12T05:06:37;1.50;99.90
27200;DHT22;14714;48.106;11.546;2023-03-12T05:09:04;1.60;99.90
27200;DHT22;14714;48.106;11.546;2023-03-12T05:11:30;1.60;99.90
27200;DHT22;14714;48.106;11.546;2023-03-12T05:13:57;1.70;99.90
27200;DHT22;14714;48.106;11.546;2023-03-12T05:16:24;1.70;99.90
27200;DHT22;14714;48.106;11.546;2023-03-12T05:18:50;1.70;99.90
27200;DHT22;14714;48.106;11.546;2023-03-12T05:21:18;1.70;99.90
27200;DHT22;14714;48.106;11.546;2023-03-12T05:23:45;1.80;99.90
27200;DHT22;14714;48.106;11.546;2023-03-12T05:26:22;1.80;99.90
27200;DHT22;14714;48.106;11.546;2023-03-12T05:28:50;1.80;99.90
27200;DHT22;14714;48.106;11.546;2023-03-12T05:31:17;1.80;99.90
27200;DHT22;14714;48.106;11.546;2023-03-12T05:33:44;1.80;99.90
27200;DHT22;14714;48.106;11.546;2023-03-12T05:36:11;1.80;99.90
27200;DHT22;14714;48.106;11.546;2023-03-12T05:38:38;1.80;99.90
27200;DHT22;14714;48.106;11.546;2023-03-12T05:41:05;1.80;99.90
27200;DHT22;14714;48.106;11.546;2023-03-12T05:43:32;1.80;99.90
27200;DHT22;14714;48.106;11.546;2023-03-12T05:46:00;1.80;99.90
27200;DHT22;14714;48.106;11.546;2023-03-12T05:48:27;1.80;99.90
27200;DHT22;14714;48.106;11.546;2023-03-12T05:50:54;1.90;99.90
27200;DHT22;14714;48.106;11.546;2023-03-12T05:53:21;1.90;99.90
27200;DHT22;14714;48.106;11.546;2023-03-12T05:55:47;1.90;99.90
27200;DHT22;14714;48.106;11.546;2023-03-12T05:58:14;1.90;99.90
27200;DHT22;14714;48.106;11.546;2023-03-12T06:00:41;2.00;99.90
27200;DHT22;14714;48.106;11.546;2023-03-12T06:03:09;2.00;99.90
27200;DHT22;14714;48.106;11.546;2023-03-12T06:05:37;2.10;99.90
27200;DHT22;14714;48.106;11.546;2023-03-12T06:08:04;2.20;99.90
27200;DHT22;14714;48.106;11.546;2023-03-12T06:10:31;2.30;99.90
27200;DHT22;14714;48.106;11.546;2023-03-12T06:12:58;2.30;99.90
27200;DHT22;14714;48.106;11.546;2023-03-12T06:15:24;2.50;99.90
27200;DHT22;14714;48.106;11.546;2023-03-12T06:17:51;2.60;99.90
27200;DHT22;14714;48.106;11.546;2023-03-12T06:20:18;2.70;99.90
27200;DHT22;14714;48.106;11.546;2023-03-12T06:22:44;2.70;99.90
27200;DHT22;14714;48.106;11.546;2023-03-12T06:25:11;2.80;99.90
27200;DHT22;14714;48.106;11.546;2023-03-12T06:27:38;2.90;99.90
27200;DHT22;14714;48.106;11.546;2023-03-12T06:30:05;2.90;99.90
27200;DHT22;14714;48.106;11.546;2023-03-12T06:32:32;3.00;99.90
27200;DHT22;14714;48.106;11.546;2023-03-12T06:34:58;3.00;99.90
27200;DHT22;14714;48.106;11.546;2023-03-12T06:37:29;3.00;99.90
27200;DHT22;14714;48.106;11.546;2023-03-12T06:39:56;3.10;99.90
27200;DHT22;14714;48.106;11.546;2023-03-12T06:42:23;3.20;99.90
27200;DHT22;14714;48.106;11.546;2023-03-12T06:44:51;3.30;99.90
27200;DHT22;14714;48.106;11.546;2023-03-12T06:47:19;3.40;99.90
27200;DHT22;14714;48.106;11.546;2023-03-12T06:49:45;3.50;99.90
27200;DHT22;14714;48.106;11.546;2023-03-12T06:52:12;3.60;99.90
27200;DHT22;14714;48.106;11.546;2023-03-12T06:54:39;3.70;99.90
27200;DHT22;14714;48.106;11.546;2023-03-12T06:57:05;3.80;99.90
27200;DHT22;14714;48.106;11.546;2023-03-12T06:59:32;3.80;99.90
27200;DHT22;14714;48.106;11.546;2023-03-12T07:01:59;3.80;99.90
27200;DHT22;14714;48.106;11.546;2023-03-12T07:04:25;3.90;99.90
27200;DHT22;14714;48.106;11.546;2023-03-12T07:06:52;3.90;99.90
27200;DHT22;14714;48.106;11.546;2023-03-12T07:09:19;3.90;99.90
27200;DHT22;14714;48.106;11.546;2023-03-12T07:11:46;4.00;99.90
27200;DHT22;14714;48.106;11.546;2023-03-12T07:14:12;4.00;99.90
27200;DHT22;14714;48.106;11.546;2023-03-12T07:16:39;4.00;99.90
27200;DHT22;14714;48.106;11.546;2023-03-12T07:19:06;4.00;99.90
27200;DHT22;14714;48.106;11.546;2023-03-12T07:21:32;4.00;99.90
27200;DHT22;14714;48.106;11.546;2023-03-12T07:23:59;4.10;99.90
27200;DHT22;14714;48.106;11.546;2023-03-12T07:26:26;4.10;99.90
27200;DHT22;14714;48.106;11.546;2023-03-12T07:28:53;4.20;99.90
27200;DHT22;14714;48.106;11.546;2023-03-12T07:31:19;4.30;99.90
27200;DHT22;14714;48.106;11.546;2023-03-12T07:33:46;4.40;99.90
27200;DHT22;14714;48.106;11.546;2023-03-12T07:36:13;4.60;99.90
27200;DHT22;14714;48.106;11.546;2023-03-12T07:38:40;4.70;99.90
27200;DHT22;14714;48.106;11.546;2023-03-12T07:41:07;4.90;99.90
27200;DHT22;14714;48.106;11.546;2023-03-12T07:43:34;5.00;99.90
27200;DHT22;14714;48.106;11.546;2023-03-12T07:46:00;5.10;99.90
27200;DHT22;14714;48.106;11.546;2023-03-12T07:48:27;5.20;99.90
27200;DHT22;14714;48.106;11.546;2023-03-12T07:50:54;5.20;99.90
27200;DHT22;14714;48.106;11.546;2023-03-12T07:53:20;5.40;99.90
27200;DHT22;14714;48.106;11.546;2023-03-12T07:55:47;5.60;99.90
27200;DHT22;14714;48.106;11.546;2023-03-12T07:58:15;5.80;99.90
27200;DHT22;14714;48.106;11.546;2023-03-12T08:00:42;5.90;99.90
27200;DHT22;14714;48.106;11.546;2023-03-12T08:03:10;6.10;99.90
27200;DHT22;14714;48.106;11.546;2023-03-12T08:05:37;6.10;99.90
27200;DHT22;14714;48.106;11.546;2023-03-12T08:08:04;6.10;99.90
27200;DHT22;14714;48.106;11.546;2023-03-12T08:10:31;6.10;99.90
27200;DHT22;14714;48.106;11.546;2023-03-12T08:12:58;6.10;99.90
27200;DHT22;14714;48.106;11.546;2023-03-12T08:15:24;6.00;99.90
27200;DHT22;14714;48.106;11.546;2023-03-12T08:17:51;5.90;99.90
27200;DHT22;14714;48.106;11.546;2023-03-12T08:20:18;5.90;99.90
27200;DHT22;14714;48.106;11.546;2023-03-12T08:22:44;5.80;99.90
27200;DHT22;14714;48.106;11.546;2023-03-12T08:25:11;5.80;99.90
27200;DHT22;14714;48.106;11.546;2023-03-12T08:27:38;5.80;99.90
27200;DHT22;14714;48.106;11.546;2023-03-12T08:30:05;5.80;99.90
27200;DHT22;14714;48.106;11.546;2023-03-12T08:32:32;5.70;99.90
27200;DHT22;14714;48.106;11.546;2023-03-12T08:34:59;5.70;99.90
27200;DHT22;14714;48.106;11.546;2023-03-12T08:37:26;5.70;99.90
27200;DHT22;14714;48.106;11.546;2023-03-12T08:39:53;5.70;99.90
27200;DHT22;14714;48.106;11.546;2023-03-12T08:42:20;5.70;99.90
27200;DHT22;14714;48.106;11.546;2023-03-12T08:44:46;5.70;99.90
27200;DHT22;14714;48.106;11.546;2023-03-12T08:47:13;5.60;99.90
27200;DHT22;14714;48.106;11.546;2023-03-12T08:49:40;5.50;99.90
27200;DHT22;14714;48.106;11.546;2023-03-12T08:52:06;5.50;99.90
27200;DHT22;14714;48.106;11.546;2023-03-12T08:54:33;5.50;99.90
27200;DHT22;14714;48.106;11.546;2023-03-12T08:56:59;5.40;99.90
27200;DHT22;14714;48.106;11.546;2023-03-12T08:59:26;5.50;99.90
27200;DHT22;14714;48.106;11.546;2023-03-12T09:01:53;5.60;99.90
27200;DHT22;14714;48.106;11.546;2023-03-12T09:04:19;5.70;99.90
27200;DHT22;14714;48.106;11.546;2023-03-12T09:06:46;5.80;99.90
27200;DHT22;14714;48.106;11.546;2023-03-12T09:09:13;5.90;99.90
27200;DHT22;14714;48.106;11.546;2023-03-12T09:11:40;6.00;99.90
27200;DHT22;14714;48.106;11.546;2023-03-12T09:14:06;6.10;99.90
27200;DHT22;14714;48.106;11.546;2023-03-12T09:16:53;6.30;99.90
27200;DHT22;14714;48.106;11.546;2023-03-12T09:19:19;6.50;99.90
27200;DHT22;14714;48.106;11.546;2023-03-12T09:21:46;6.60;99.90
27200;DHT22;14714;48.106;11.546;2023-03-12T09:24:13;6.70;99.90
27200;DHT22;14714;48.106;11.546;2023-03-12T09:26:39;6.70;99.90
27200;DHT22;14714;48.106;11.546;2023-03-12T09:29:06;6.60;99.90
27200;DHT22;14714;48.106;11.546;2023-03-12T09:31:33;6.60;99.90
27200;DHT22;14714;48.106;11.546;2023-03-12T09:34:02;6.40;99.90
27200;DHT22;14714;48.106;11.546;2023-03-12T09:36:29;6.30;99.90
27200;DHT22;14714;48.106;11.546;2023-03-12T09:38:55;6.20;99.90
27200;DHT22;14714;48.106;11.546;2023-03-12T09:41:24;6.10;99.90
27200;DHT22;14714;48.106;11.546;2023-03-12T09:46:32;6.00;99.90
27200;DHT22;14714;48.106;11.546;2023-03-12T09:49:01;6.00;99.90
27200;DHT22;14714;48.106;11.546;2023-03-12T09:51:48;6.00;99.90
27200;DHT22;14714;48.106;11.546;2023-03-12T09:54:24;5.80;99.90
27200;DHT22;14714;48.106;11.546;2023-03-12T09:56:53;5.70;99.90
27200;DHT22;14714;48.106;11.546;2023-03-12T09:59:21;5.70;99.90
27200;DHT22;14714;48.106;11.546;2023-03-12T10:01:50;5.70;99.90
27200;DHT22;14714;48.106;11.546;2023-03-12T10:10:02;5.60;99.90
27200;DHT22;14714;48.106;11.546;2023-03-12T10:12:39;5.50;99.90
27200;DHT22;14714;48.106;11.546;2023-03-12T10:23:12;5.30;99.90
27200;DHT22;14714;48.106;11.546;2023-03-12T10:29:11;5.40;99.90
27200;DHT22;14714;48.106;11.546;2023-03-12T10:31:06;5.30;99.90
27200;DHT22;14714;48.106;11.546;2023-03-12T10:33:40;5.30;99.90
27200;DHT22;14714;48.106;11.546;2023-03-12T10:36:09;5.20;99.90
27200;DHT22;14714;48.106;11.546;2023-03-12T10:38:38;5.20;99.90
27200;DHT22;14714;48.106;11.546;2023-03-12T10:41:15;5.30;99.90
27200;DHT22;14714;48.106;11.546;2023-03-12T10:43:42;5.20;99.90
27200;DHT22;14714;48.106;11.546;2023-03-12T10:49:40;5.40;99.90
27200;DHT22;14714;48.106;11.546;2023-03-12T10:52:16;5.50;99.90
27200;DHT22;14714;48.106;11.546;2023-03-12T10:57:02;5.60;99.90
27200;DHT22;14714;48.106;11.546;2023-03-12T10:59:33;5.60;99.90
27200;DHT22;14714;48.106;11.546;2023-03-12T11:01:59;5.70;99.90
27200;DHT22;14714;48.106;11.546;2023-03-12T11:04:28;5.80;99.90
27200;DHT22;14714;48.106;11.546;2023-03-12T11:07:03;5.90;99.90
27200;DHT22;14714;48.106;11.546;2023-03-12T11:09:31;6.00;99.90
27200;DHT22;14714;48.106;11.546;2023-03-12T11:11:57;6.10;99.90
27200;DHT22;14714;48.106;11.546;2023-03-12T11:14:28;6.20;99.90
27200;DHT22;14714;48.106;11.546;2023-03-12T11:16:55;6.30;99.90
27200;DHT22;14714;48.106;11.546;2023-03-12T11:19:27;6.40;99.90
27200;DHT22;14714;48.106;11.546;2023-03-12T11:21:56;6.60;99.90
27200;DHT22;14714;48.106;11.546;2023-03-12T11:24:23;6.70;99.90
27200;DHT22;14714;48.106;11.546;2023-03-12T11:26:50;6.90;99.90
27200;DHT22;14714;48.106;11.546;2023-03-12T11:29:31;6.90;99.90
27200;DHT22;14714;48.106;11.546;2023-03-12T11:32:01;7.10;99.90
27200;DHT22;14714;48.106;11.546;2023-03-12T11:34:30;7.20;99.90
27200;DHT22;14714;48.106;11.546;2023-03-12T11:39:26;7.40;99.90
27200;DHT22;14714;48.106;11.546;2023-03-12T11:41:59;7.50;99.90
27200;DHT22;14714;48.106;11.546;2023-03-12T11:55:11;7.70;99.90
27200;DHT22;14714;48.106;11.546;2023-03-12T11:57:55;7.70;99.90
27200;DHT22;14714;48.106;11.546;2023-03-12T12:00:25;7.70;99.90
27200;DHT22;14714;48.106;11.546;2023-03-12T12:05:30;8.00;99.90
27200;DHT22;14714;48.106;11.546;2023-03-12T12:10:34;8.40;99.90
27200;DHT22;14714;48.106;11.546;2023-03-12T12:23:47;9.10;99.90
27200;DHT22;14714;48.106;11.546;2023-03-12T12:26:41;9.20;99.90
27200;DHT22;14714;48.106;11.546;2023-03-12T12:31:36;9.10;99.90
27200;DHT22;14714;48.106;11.546;2023-03-12T12:36:53;9.00;99.90
27200;DHT22;14714;48.106;11.546;2023-03-12T12:41:53;9.10;99.90
27200;DHT22;14714;48.106;11.546;2023-03-12T12:44:20;9.00;99.90
27200;DHT22;14714;48.106;11.546;2023-03-12T12:46:54;9.00;99.90
27200;DHT22;14714;48.106;11.546;2023-03-12T12:49:28;8.90;99.90
27200;DHT22;14714;48.106;11.546;2023-03-12T12:51:57;8.90;99.90
27200;DHT22;14714;48.106;11.546;2023-03-12T13:02:12;9.00;99.90
27200;DHT22;14714;48.106;11.546;2023-03-12T13:04:41;9.10;99.90
27200;DHT22;14714;48.106;11.546;2023-03-12T13:09:39;9.30;99.90
27200;DHT22;14714;48.106;11.546;2023-03-12T13:12:07;9.30;99.90
27200;DHT22;14714;48.106;11.546;2023-03-12T13:14:38;9.40;99.90
27200;DHT22;14714;48.106;11.546;2023-03-12T13:17:06;9.60;99.90
27200;DHT22;14714;48.106;11.546;2023-03-12T13:19:37;9.70;99.90
27200;DHT22;14714;48.106;11.546;2023-03-12T13:29:36;10.10;99.90
27200;DHT22;14714;48.106;11.546;2023-03-12T13:32:03;10.20;99.90
27200;DHT22;14714;48.106;11.546;2023-03-12T13:34:31;10.30;99.90
27200;DHT22;14714;48.106;11.546;2023-03-12T13:37:16;10.20;99.90
27200;DHT22;14714;48.106;11.546;2023-03-12T13:39:44;10.20;99.90
27200;DHT22;14714;48.106;11.546;2023-03-12T13:44:50;10.40;99.90
27200;DHT22;14714;48.106;11.546;2023-03-12T13:47:27;10.60;99.90
27200;DHT22;14714;48.106;11.546;2023-03-12T13:49:58;10.70;99.90
27200;DHT22;14714;48.106;11.546;2023-03-12T13:52:29;10.90;99.90
27200;DHT22;14714;48.106;11.546;2023-03-12T13:54:58;11.00;99.90
27200;DHT22;14714;48.106;11.546;2023-03-12T13:57:30;11.10;99.90
27200;DHT22;14714;48.106;11.546;2023-03-12T13:59:59;11.30;99.90
27200;DHT22;14714;48.106;11.546;2023-03-12T14:02:32;11.40;99.90
27200;DHT22;14714;48.106;11.546;2023-03-12T14:05:01;11.40;99.90
27200;DHT22;14714;48.106;11.546;2023-03-12T14:07:40;11.30;99.90
27200;DHT22;14714;48.106;11.546;2023-03-12T14:10:29;11.20;99.90
27200;DHT22;14714;48.106;11.546;2023-03-12T14:15:36;11.00;99.90
27200;DHT22;14714;48.106;11.546;2023-03-12T14:18:41;11.00;99.90
27200;DHT22;14714;48.106;11.546;2023-03-12T14:21:00;11.10;99.90
27200;DHT22;14714;48.106;11.546;2023-03-12T14:23:31;11.20;99.90
27200;DHT22;14714;48.106;11.546;2023-03-12T14:26:00;11.30;99.90
27200;DHT22;14714;48.106;11.546;2023-03-12T14:28:29;11.40;99.90
27200;DHT22;14714;48.106;11.546;2023-03-12T14:31:02;11.40;99.90
27200;DHT22;14714;48.106;11.546;2023-03-12T14:33:31;11.40;99.90
27200;DHT22;14714;48.106;11.546;2023-03-12T14:36:02;11.30;99.90
27200;DHT22;14714;48.106;11.546;2023-03-12T14:38:31;11.30;99.90
27200;DHT22;14714;48.106;11.546;2023-03-12T14:41:03;11.30;99.90
27200;DHT22;14714;48.106;11.546;2023-03-12T14:43:32;11.20;99.90
27200;DHT22;14714;48.106;11.546;2023-03-12T14:46:03;11.20;99.90
27200;DHT22;14714;48.106;11.546;2023-03-12T14:48:31;11.10;99.90
27200;DHT22;14714;48.106;11.546;2023-03-12T14:50:59;11.10;99.90
27200;DHT22;14714;48.106;11.546;2023-03-12T14:53:27;11.10;99.90
27200;DHT22;14714;48.106;11.546;2023-03-12T14:56:11;11.10;99.90
27200;DHT22;14714;48.106;11.546;2023-03-12T14:58:43;11.10;99.90
27200;DHT22;14714;48.106;11.546;2023-03-12T15:01:11;11.00;99.90
27200;DHT22;14714;48.106;11.546;2023-03-12T15:03:45;10.90;99.90
27200;DHT22;14714;48.106;11.546;2023-03-12T15:06:32;10.90;99.90
27200;DHT22;14714;48.106;11.546;2023-03-12T15:09:00;10.90;99.90
27200;DHT22;14714;48.106;11.546;2023-03-12T15:11:30;11.00;99.90
27200;DHT22;14714;48.106;11.546;2023-03-12T15:14:01;11.00;99.90
27200;DHT22;14714;48.106;11.546;2023-03-12T15:16:28;11.10;99.90
27200;DHT22;14714;48.106;11.546;2023-03-12T15:18:55;11.10;99.90
27200;DHT22;14714;48.106;11.546;2023-03-12T15:21:22;11.10;99.90
27200;DHT22;14714;48.106;11.546;2023-03-12T15:23:49;11.10;99.90
27200;DHT22;14714;48.106;11.546;2023-03-12T15:26:25;11.00;99.90
27200;DHT22;14714;48.106;11.546;2023-03-12T15:28:59;11.00;99.90
27200;DHT22;14714;48.106;11.546;2023-03-12T15:31:30;10.90;99.90
27200;DHT22;14714;48.106;11.546;2023-03-12T15:34:05;10.90;99.90
27200;DHT22;14714;48.106;11.546;2023-03-12T15:36:32;10.80;99.90
27200;DHT22;14714;48.106;11.546;2023-03-12T15:39:11;10.70;99.90
27200;DHT22;14714;48.106;11.546;2023-03-12T15:41:44;10.70;99.90
27200;DHT22;14714;48.106;11.546;2023-03-12T15:44:18;10.70;99.90
27200;DHT22;14714;48.106;11.546;2023-03-12T15:46:51;10.80;99.90
27200;DHT22;14714;48.106;11.546;2023-03-12T15:49:26;10.80;99.90
27200;DHT22;14714;48.106;11.546;2023-03-12T15:52:36;10.70;99.90
27200;DHT22;14714;48.106;11.546;2023-03-12T15:57:46;10.60;99.90
27200;DHT22;14714;48.106;11.546;2023-03-12T16:00:19;10.50;99.90
27200;DHT22;14714;48.106;11.546;2023-03-12T16:02:59;10.40;99.90
27200;DHT22;14714;48.106;11.546;2023-03-12T16:05:31;10.40;99.90
27200;DHT22;14714;48.106;11.546;2023-03-12T16:08:09;10.40;99.90
27200;DHT22;14714;48.106;11.546;2023-03-12T16:10:38;10.30;99.90
27200;DHT22;14714;48.106;11.546;2023-03-12T16:13:04;10.30;99.90
27200;DHT22;14714;48.106;11.546;2023-03-12T16:15:32;10.20;99.90
27200;DHT22;14714;48.106;11.546;2023-03-12T16:17:59;10.20;99.90
27200;DHT22;14714;48.106;11.546;2023-03-12T16:20:26;10.20;99.90
27200;DHT22;14714;48.106;11.546;2023-03-12T16:22:53;10.10;99.90
27200;DHT22;14714;48.106;11.546;2023-03-12T16:25:20;10.10;99.90
27200;DHT22;14714;48.106;11.546;2023-03-12T16:27:48;10.10;99.90
27200;DHT22;14714;48.106;11.546;2023-03-12T16:30:37;10.10;99.90
27200;DHT22;14714;48.106;11.546;2023-03-12T16:33:04;10.10;99.90
27200;DHT22;14714;48.106;11.546;2023-03-12T16:35:34;10.10;99.90
27200;DHT22;14714;48.106;11.546;2023-03-12T16:38:01;10.20;99.90
27200;DHT22;14714;48.106;11.546;2023-03-12T16:40:33;10.20;99.90
27200;DHT22;14714;48.106;11.546;2023-03-12T16:43:01;10.10;99.90
27200;DHT22;14714;48.106;11.546;2023-03-12T16:45:29;10.10;99.90
27200;DHT22;14714;48.106;11.546;2023-03-12T16:47:57;10.00;99.90
27200;DHT22;14714;48.106;11.546;2023-03-12T16:50:24;9.90;99.90
27200;DHT22;14714;48.106;11.546;2023-03-12T16:52:51;9.90;99.90
27200;DHT22;14714;48.106;11.546;2023-03-12T16:55:19;9.80;99.90
27200;DHT22;14714;48.106;11.546;2023-03-12T16:57:47;9.70;99.90
27200;DHT22;14714;48.106;11.546;2023-03-12T17:00:15;9.70;99.90
27200;DHT22;14714;48.106;11.546;2023-03-12T17:02:43;9.60;99.90
27200;DHT22;14714;48.106;11.546;2023-03-12T17:05:11;9.50;99.90
27200;DHT22;14714;48.106;11.546;2023-03-12T17:07:38;9.40;99.90
27200;DHT22;14714;48.106;11.546;2023-03-12T17:10:06;9.40;99.90